createdAt,value
2023-01-23T00:02:01.360Z,23.3
2023-01-23T00:07:24.824Z,23.1
2023-01-23T00:12:48.016Z,23.6
2023-01-23T00:18:11.062Z,23.7
2023-01-23T00:23:37.896Z,23.4
2023-01-23T00:28:59.781Z,23.2
2023-01-23T00:34:23.546Z,23.4
2023-01-23T00:39:31.535Z,23.9
2023-01-23T00:44:59.896Z,23.7
2023-01-23T00:50:07.585Z,23.4
2023-01-23T00:55:30.542Z,23.3
2023-01-23T01:00:53.277Z,23.7
2023-01-23T01:06:17.417Z,23.9
2023-01-23T01:10:54.672Z,23.7
2023-01-23T01:16:16.467Z,23.5
2023-01-23T01:21:40.171Z,23.4
2023-01-23T01:27:02.909Z,23.9
2023-01-23T01:32:26.810Z,23.9
2023-01-23T01:37:50.090Z,23.6
2023-01-23T01:43:12.971Z,23.4
2023-01-23T01:48:36.235Z,23.6
2023-01-23T01:53:59.300Z,24.1
2023-01-23T01:58:50.542Z,23.8
2023-01-23T02:03:57.916Z,23.6
2023-01-23T02:09:05.972Z,23.4
2023-01-23T02:14:29.292Z,23.7
2023-01-23T02:19:52.192Z,24.1
2023-01-23T02:25:02.341Z,23.9
2023-01-23T02:30:25.398Z,23.6
2023-01-23T02:35:48.895Z,23.5
2023-01-23T02:41:12.453Z,23.9
2023-01-23T02:46:20.697Z,24.1
2023-01-23T02:51:44.228Z,23.8
2023-01-23T02:57:06.763Z,23.6
2023-01-23T03:02:30.286Z,23.5
2023-01-23T03:07:53.521Z,24
2023-01-23T03:13:16.158Z,24.1
2023-01-23T03:18:23.135Z,23.8
2023-01-23T03:23:44.884Z,23.6
2023-01-23T03:28:52.702Z,23.6
2023-01-23T03:34:16.528Z,24.1
2023-01-23T03:39:39.218Z,24
2023-01-23T03:44:31.365Z,23.8
2023-01-23T03:49:38.861Z,23.6
2023-01-23T03:54:30.752Z,23.6
2023-01-23T03:59:38.471Z,24.1
2023-01-23T04:04:46.875Z,24
2023-01-23T04:09:53.273Z,23.8
2023-01-23T04:14:52.853Z,23.6
2023-01-23T04:20:16.208Z,23.6
2023-01-23T04:25:37.859Z,24.1
2023-01-23T04:31:01.598Z,24
2023-01-23T04:36:25.776Z,23.8
2023-01-23T04:41:48.152Z,23.6
2023-01-23T04:47:13.088Z,23.7
2023-01-23T04:52:21.089Z,24.2
2023-01-23T04:57:27.447Z,23.9
2023-01-23T05:02:52.010Z,23.7
2023-01-23T05:08:15.585Z,23.6
2023-01-23T05:13:40.404Z,23.7
2023-01-23T05:18:48.919Z,24.2
2023-01-23T05:23:57.255Z,23.9
2023-01-23T05:29:03.407Z,23.7
2023-01-23T05:34:11.648Z,23.5
2023-01-23T05:39:38.163Z,23.7
2023-01-23T05:45:02.161Z,24.2
2023-01-23T05:49:54.638Z,23.8
2023-01-23T05:55:18.926Z,23.6
2023-01-23T06:00:28.347Z,23.4
2023-01-23T06:05:20.783Z,23.8
2023-01-23T06:10:44.752Z,24.1
2023-01-23T06:15:51.577Z,23.9
2023-01-23T06:21:02.496Z,23.6
2023-01-23T06:26:26.455Z,23.4
2023-01-23T06:31:49.551Z,23.7
2023-01-23T06:37:16.579Z,24.1
2023-01-23T06:42:27.132Z,23.8
2023-01-23T06:47:50.440Z,23.6
2023-01-23T06:53:13.893Z,23.4
2023-01-23T06:58:37.841Z,23.8
2023-01-23T07:04:00.819Z,24.1
2023-01-23T07:09:23.729Z,23.8
2023-01-23T07:14:47.741Z,23.6
2023-01-23T07:20:12.911Z,23.5
2023-01-23T07:25:19.804Z,23.9
2023-01-23T07:30:43.987Z,24.1
2023-01-23T07:36:08.420Z,23.8
2023-01-23T07:41:31.769Z,23.6
2023-01-23T07:46:55.574Z,23.5
2023-01-23T07:52:19.220Z,24
2023-01-23T07:57:44.786Z,24
2023-01-23T08:03:13.725Z,23.7
2023-01-23T08:08:29.902Z,23.5
2023-01-23T08:13:53.073Z,23.6
2023-01-23T08:19:01.793Z,24.1
2023-01-23T08:24:24.071Z,24.1
2023-01-23T08:29:31.396Z,23.8
2023-01-23T08:34:40.263Z,23.6
2023-01-23T08:40:03.568Z,23.6
2023-01-23T08:45:27.279Z,24.1
2023-01-23T08:50:52.154Z,23.9
2023-01-23T08:56:16.647Z,23.7
2023-01-23T09:01:40.405Z,23.5
2023-01-23T09:06:48.833Z,23.6
2023-01-23T09:11:56.790Z,24.2
2023-01-23T09:17:20.644Z,23.9
2023-01-23T09:22:44.749Z,23.7
2023-01-23T09:28:08.122Z,23.5
2023-01-23T09:33:32.252Z,23.6
2023-01-23T09:39:11.653Z,24.2
2023-01-23T09:44:21.421Z,23.9
2023-01-23T09:49:45.308Z,23.6
2023-01-23T09:54:53.765Z,23.4
2023-01-23T10:00:16.008Z,23.8
2023-01-23T10:05:40.867Z,24.2
2023-01-23T10:11:07.595Z,23.9
2023-01-23T10:16:48.668Z,23.6
2023-01-23T10:22:22.713Z,23.5
2023-01-23T10:27:49.053Z,23.9
2023-01-23T10:33:12.047Z,24.1
2023-01-23T10:38:50.499Z,23.8
2023-01-23T10:44:16.572Z,23.6
2023-01-23T10:49:56.532Z,23.6
2023-01-23T10:55:39.132Z,24.1
2023-01-23T11:01:04.355Z,24
2023-01-23T11:06:27.130Z,23.7
2023-01-23T11:11:50.282Z,23.4
2023-01-23T11:17:16.559Z,23.6
2023-01-23T11:22:39.233Z,24.1
2023-01-23T11:28:16.266Z,23.9
2023-01-23T11:33:43.864Z,23.6
2023-01-23T11:39:13.617Z,23.5
2023-01-23T11:44:45.775Z,23.6
2023-01-23T11:50:10.568Z,24.2
2023-01-23T11:55:38.903Z,23.9
2023-01-23T12:00:53.574Z,23.6
2023-01-23T12:06:53.287Z,23.5
2023-01-23T12:12:15.499Z,23.7
2023-01-23T12:17:39.807Z,24.2
2023-01-23T12:22:47.973Z,23.9
2023-01-23T12:28:12.386Z,23.6
2023-01-23T12:33:36.427Z,23.5
2023-01-23T12:39:27.761Z,23.7
2023-01-23T12:44:51.412Z,24.2
2023-01-23T12:50:15.550Z,23.9
2023-01-23T12:55:40.738Z,23.6
2023-01-23T13:01:28.907Z,23.5
2023-01-23T13:07:06.853Z,23.9
2023-01-23T13:12:50.419Z,24.3
2023-01-23T13:18:44.390Z,23.9
2023-01-23T13:24:13.313Z,23.6
2023-01-23T13:29:51.350Z,23.6
2023-01-23T13:35:22.900Z,24.1
2023-01-23T13:40:57.033Z,24.1
2023-01-23T13:46:30.107Z,23.8
2023-01-23T13:51:37.866Z,23.6
2023-01-23T13:57:01.622Z,23.6
2023-01-23T14:02:25.032Z,24.1
2023-01-23T14:07:47.307Z,24.1
2023-01-23T14:13:11.352Z,23.8
2023-01-23T14:18:35.535Z,23.6
2023-01-23T14:24:11.395Z,23.6
2023-01-23T14:29:51.449Z,24.1
2023-01-23T14:35:25.888Z,24.1
2023-01-23T14:40:57.529Z,23.8
2023-01-23T14:46:41.082Z,23.6
2023-01-23T14:52:19.568Z,23.6
2023-01-23T14:58:02.818Z,24.2
2023-01-23T15:03:37.273Z,24.1
2023-01-23T15:09:01.752Z,23.8
2023-01-23T15:14:24.661Z,23.6
2023-01-23T15:19:48.776Z,23.6
2023-01-23T15:25:13.219Z,24.1
2023-01-23T15:30:48.194Z,24.1
2023-01-23T15:36:13.658Z,23.8
2023-01-23T15:41:50.546Z,23.6
2023-01-23T15:47:15.436Z,23.4
2023-01-23T15:52:46.575Z,23.3
2023-01-23T15:58:23.739Z,23.3
2023-01-23T16:04:03.604Z,23.1
2023-01-23T16:09:35.235Z,23.3
2023-01-23T16:14:59.518Z,23.9
2023-01-23T16:20:19.544Z,24.8
2023-01-23T16:26:33.442Z,25.2
2023-01-23T16:31:58.907Z,25.8
2023-01-23T16:37:22.414Z,26.3
2023-01-23T16:42:46.535Z,26.6
2023-01-23T16:48:15.363Z,27.1
2023-01-23T16:53:50.689Z,27.5
2023-01-23T16:59:27.463Z,27.5
2023-01-23T17:05:06.291Z,27.8
2023-01-23T17:20:28.100Z,27.9
2023-01-23T17:26:00.641Z,27.9
2023-01-23T17:31:38.026Z,28
2023-01-23T17:37:08.848Z,28
2023-01-23T17:42:31.833Z,28.1
2023-01-23T17:47:57.239Z,28.2
2023-01-23T17:53:05.906Z,28.3
2023-01-23T17:58:31.253Z,28.4
2023-01-23T18:03:57.222Z,28.5
2023-01-23T18:09:17.546Z,28.7
2023-01-23T18:14:43.636Z,28.8
2023-01-23T18:20:16.173Z,28.9
2023-01-23T18:25:14.093Z,29.1
2023-01-23T18:30:09.532Z,29.2
2023-01-23T18:35:26.896Z,29.3
2023-01-23T18:40:46.284Z,29.4
2023-01-23T18:46:03.057Z,29.6
2023-01-23T18:52:09.623Z,29.8
2023-01-23T18:57:43.673Z,30.2
2023-01-23T19:03:38.828Z,30.5
2023-01-23T19:09:18.533Z,30.7
2023-01-23T19:14:47.904Z,30.8
2023-01-23T19:20:44.945Z,30.8
2023-01-23T19:26:22.742Z,30.8
2023-01-23T19:32:23.643Z,30.7
2023-01-23T19:37:51.038Z,30.6
2023-01-23T19:43:50.727Z,30.7
2023-01-23T19:49:29.467Z,30.9
2023-01-23T19:54:53.092Z,31.1
2023-01-23T20:00:00.321Z,31.4
2023-01-23T20:05:17.854Z,31.6
2023-01-23T20:10:29.713Z,31.7
2023-01-23T20:16:00.878Z,31.8
2023-01-23T20:21:30.225Z,31.8
2023-01-23T20:27:00.719Z,31.9
2023-01-23T20:32:16.662Z,32.1
2023-01-23T20:37:44.315Z,32
2023-01-23T20:43:08.823Z,31.9
2023-01-23T20:48:35.028Z,31.8
2023-01-23T20:53:59.887Z,31.6
2023-01-23T20:59:27.620Z,31.4
2023-01-23T21:04:39.388Z,31.3
2023-01-23T21:09:17.182Z,31.3
2023-01-23T21:14:25.351Z,31.3
2023-01-23T21:19:49.999Z,31.1
2023-01-23T21:25:15.454Z,31
2023-01-23T21:30:37.900Z,30.9
2023-01-23T21:36:00.787Z,30.8
2023-01-23T21:41:09.995Z,30.7
2023-01-23T21:46:32.355Z,30.6
2023-01-23T21:51:39.346Z,30.6
2023-01-23T21:56:48.224Z,30.5
2023-01-23T22:02:10.707Z,30.4
2023-01-23T22:07:34.612Z,30.3
2023-01-23T22:13:00.898Z,30.2
2023-01-23T22:18:43.006Z,29.9
2023-01-23T22:24:06.452Z,29.6
2023-01-23T22:29:30.853Z,29.3
2023-01-23T22:35:04.049Z,28.9
2023-01-23T22:40:27.093Z,28.3
2023-01-23T22:45:51.571Z,28.1
2023-01-23T22:51:14.683Z,27.8
2023-01-23T22:56:40.466Z,27.6
2023-01-23T23:01:49.400Z,27.3
2023-01-23T23:07:12.657Z,27.3
2023-01-23T23:12:04.395Z,26.9
2023-01-23T23:16:56.980Z,26.9
2023-01-23T23:22:04.229Z,26.7
2023-01-23T23:27:11.962Z,26.6
2023-01-23T23:32:20.745Z,26.4
2023-01-23T23:37:43.773Z,26.4
2023-01-23T23:43:06.863Z,26.1
2023-01-23T23:48:30.737Z,26.1
2023-01-23T23:53:53.416Z,25.8
2023-01-23T23:59:00.921Z,26.2
